Time;durP1;ratioP1;P1;durP2;ratioP2;P2;SDS_P1;SDS_P2;PMS_P1;PMS_P2;Temp;Humidity;BMP_temperature;BMP_pressure;BME280_temperature;BME280_humidity;BME280_pressure;Samples;Min_cycle;Max_cycle;Signal;HPM_P1;HPM_P2
2022/02/26 00:01:24;;;;;;;2.00;1.45;;;23.00;29.30;;;;;;5108442;28;20490;-71
2022/02/26 00:03:50;;;;;;;2.90;1.55;;;23.00;29.20;;;;;;5110556;28;21006;-70
2022/02/26 00:06:15;;;;;;;3.87;1.50;;;23.00;29.20;;;;;;5110509;28;20392;-70
2022/02/26 00:08:41;;;;;;;2.70;1.70;;;23.00;29.10;;;;;;5110859;28;20475;-70
2022/02/26 00:11:07;;;;;;;2.63;1.60;;;23.00;29.20;;;;;;5110222;28;20869;-70
2022/02/26 00:13:32;;;;;;;2.67;1.63;;;23.00;29.10;;;;;;5114515;28;20383;-71
2022/02/26 00:15:59;;;;;;;2.57;1.70;;;23.00;29.10;;;;;;5114919;27;20385;-70
2022/02/26 00:18:24;;;;;;;2.88;1.60;;;23.00;29.10;;;;;;5114652;28;20384;-70
2022/02/26 00:20:50;;;;;;;2.60;1.73;;;22.90;29.10;;;;;;5113202;28;20431;-70
2022/02/26 00:23:16;;;;;;;3.08;1.85;;;22.90;29.20;;;;;;5115336;28;20380;-70
2022/02/26 00:25:42;;;;;;;3.17;1.90;;;22.90;29.10;;;;;;5113895;28;20388;-70
2022/02/26 00:28:08;;;;;;;2.45;1.45;;;23.00;29.10;;;;;;5114299;28;20380;-71
2022/02/26 00:30:33;;;;;;;3.43;1.53;;;23.00;29.10;;;;;;5117307;28;20951;-70
2022/02/26 00:32:59;;;;;;;2.40;1.40;;;22.90;29.00;;;;;;5114783;27;20383;-70
2022/02/26 00:35:26;;;;;;;2.27;1.37;;;22.90;29.00;;;;;;5113292;28;20399;-70
2022/02/26 00:37:52;;;;;;;2.55;1.27;;;22.90;29.00;;;;;;5114048;28;20433;-71
2022/02/26 00:40:18;;;;;;;2.28;1.30;;;22.90;29.00;;;;;;5114628;28;20404;-70
2022/02/26 00:42:43;;;;;;;2.50;1.43;;;22.90;29.00;;;;;;5113687;28;20395;-70
2022/02/26 00:45:09;;;;;;;2.10;1.25;;;22.90;29.10;;;;;;5113926;28;20397;-70
2022/02/26 00:47:35;;;;;;;2.93;1.37;;;22.80;29.10;;;;;;5113893;28;20372;-71
2022/02/26 00:50:02;;;;;;;2.50;1.35;;;22.80;29.10;;;;;;5114895;28;20413;-70
2022/02/26 00:52:30;;;;;;;2.15;1.20;;;22.80;29.10;;;;;;5115088;28;20380;-70
2022/02/26 00:54:58;;;;;;;2.97;1.30;;;22.80;29.10;;;;;;5114112;28;20391;-70
2022/02/26 00:57:24;;;;;;;1.70;1.02;;;22.80;29.10;;;;;;5114683;28;20376;-71
2022/02/26 00:59:50;;;;;;;2.08;1.20;;;22.80;29.10;;;;;;5113693;28;20854;-70
2022/02/26 01:02:19;;;;;;;1.83;1.10;;;22.80;29.10;;;;;;5115211;28;20475;-70
2022/02/26 01:04:46;;;;;;;2.35;1.20;;;22.80;29.10;;;;;;5114264;28;20380;-70
2022/02/26 01:07:13;;;;;;;2.08;1.15;;;22.70;29.10;;;;;;5113867;28;20861;-70
2022/02/26 01:09:39;;;;;;;2.33;1.25;;;22.70;29.10;;;;;;5113873;28;20390;-70
2022/02/26 01:12:06;;;;;;;2.92;1.15;;;22.80;29.20;;;;;;5114361;28;20393;-70
2022/02/26 01:14:33;;;;;;;2.58;1.10;;;22.70;29.10;;;;;;5114725;28;20888;-70
2022/02/26 01:17:00;;;;;;;2.85;1.15;;;22.80;29.10;;;;;;5114220;28;20380;-70
2022/02/26 01:19:26;;;;;;;2.28;1.00;;;22.70;29.10;;;;;;5114177;28;20908;-70
2022/02/26 01:21:52;;;;;;;2.37;1.03;;;22.70;29.10;;;;;;5113751;28;20388;-71
2022/02/26 01:24:19;;;;;;;1.63;1.00;;;22.70;29.10;;;;;;5113929;28;20421;-70
2022/02/26 01:26:45;;;;;;;2.03;1.10;;;22.70;29.10;;;;;;5113983;28;20376;-70
2022/02/26 01:29:11;;;;;;;1.58;0.93;;;22.70;29.10;;;;;;5112192;28;20487;-70
2022/02/26 01:31:37;;;;;;;1.85;1.02;;;22.70;29.10;;;;;;5112910;28;20372;-70
2022/02/26 01:34:04;;;;;;;1.60;0.90;;;22.70;29.10;;;;;;5113958;28;20888;-70
2022/02/26 01:36:30;;;;;;;1.90;1.10;;;22.70;29.20;;;;;;5112444;28;20388;-70
2022/02/26 01:38:56;;;;;;;1.80;0.98;;;22.70;29.30;;;;;;5114012;28;20397;-70
2022/02/26 01:41:22;;;;;;;1.55;0.90;;;22.60;29.20;;;;;;5113764;28;20415;-70
2022/02/26 01:43:48;;;;;;;1.83;1.00;;;22.60;29.20;;;;;;5113499;28;20869;-70
2022/02/26 01:46:14;;;;;;;1.63;0.90;;;22.60;29.30;;;;;;5112255;28;20416;-71
2022/02/26 01:48:40;;;;;;;2.40;1.03;;;22.60;29.30;;;;;;5113631;28;20380;-70
2022/02/26 01:51:08;;;;;;;1.98;0.98;;;22.60;29.30;;;;;;5113574;28;20381;-71
2022/02/26 01:53:35;;;;;;;1.77;1.10;;;22.60;29.30;;;;;;5113289;28;20861;-71
2022/02/26 01:56:03;;;;;;;2.40;0.90;;;22.60;29.30;;;;;;5113558;27;20380;-70
2022/02/26 01:58:29;;;;;;;1.98;1.17;;;22.60;29.30;;;;;;5113424;28;20384;-71
2022/02/26 02:00:55;;;;;;;1.50;0.90;;;22.60;29.30;;;;;;5113796;28;20423;-70
2022/02/26 02:03:20;;;;;;;2.20;0.90;;;22.60;29.30;;;;;;5113385;28;20390;-70
2022/02/26 02:05:46;;;;;;;2.23;0.90;;;22.50;29.30;;;;;;5111328;28;20405;-70
2022/02/26 02:08:12;;;;;;;1.67;0.90;;;22.60;29.30;;;;;;5113240;28;20384;-70
2022/02/26 02:10:41;;;;;;;1.67;0.90;;;22.60;29.30;;;;;;5113939;28;20378;-70
2022/02/26 02:13:07;;;;;;;1.42;0.80;;;22.60;29.30;;;;;;5113330;28;20395;-70
2022/02/26 02:15:35;;;;;;;1.70;0.90;;;22.50;29.20;;;;;;5113343;28;20380;-70
2022/02/26 02:18:01;;;;;;;1.42;0.82;;;22.60;29.20;;;;;;5112829;28;20458;-70
2022/02/26 02:20:27;;;;;;;1.73;0.88;;;22.50;29.30;;;;;;5112942;27;20458;-70
2022/02/26 02:22:53;;;;;;;1.70;0.88;;;22.50;29.30;;;;;;5113002;28;20384;-70
2022/02/26 02:25:26;;;;;;;2.58;0.90;;;22.50;29.20;;;;;;5095954;28;20488;-70
2022/02/26 02:27:51;;;;;;;1.95;0.90;;;22.50;29.30;;;;;;5112294;28;20380;-71
2022/02/26 02:30:17;;;;;;;1.98;1.00;;;22.50;29.40;;;;;;5113318;28;20866;-71
2022/02/26 02:32:43;;;;;;;1.40;0.90;;;22.50;29.40;;;;;;5112893;28;20869;-70
2022/02/26 02:35:41;;;;;;;1.60;0.80;;;22.50;29.40;;;;;;5110949;28;20804;-70
2022/02/26 02:38:11;;;;;;;1.10;0.60;;;22.50;29.40;;;;;;5111775;28;20467;-70
2022/02/26 02:40:38;;;;;;;2.10;0.90;;;22.50;29.40;;;;;;5111119;28;20427;-70
2022/02/26 02:43:07;;;;;;;1.92;0.80;;;22.40;29.40;;;;;;5113011;28;20412;-70
2022/02/26 02:45:34;;;;;;;2.10;0.97;;;22.50;29.50;;;;;;5110989;28;20436;-70
2022/02/26 02:48:00;;;;;;;1.20;0.65;;;22.50;29.40;;;;;;5112408;28;20388;-70
2022/02/26 02:50:25;;;;;;;1.38;0.90;;;22.40;29.40;;;;;;5110895;28;20388;-71
2022/02/26 02:52:51;;;;;;;1.52;0.70;;;22.40;29.40;;;;;;5112427;28;20387;-70
2022/02/26 02:55:20;;;;;;;1.50;1.00;;;22.40;29.40;;;;;;5112427;28;20384;-70
2022/02/26 02:57:46;;;;;;;1.90;0.80;;;22.40;29.40;;;;;;5111961;28;20716;-70
2022/02/26 03:00:13;;;;;;;1.65;0.80;;;22.40;29.40;;;;;;5112545;28;20444;-70
2022/02/26 03:02:40;;;;;;;1.65;0.80;;;22.40;29.40;;;;;;5112468;28;20404;-70
2022/02/26 03:05:07;;;;;;;1.60;0.90;;;22.40;29.30;;;;;;5112289;28;20422;-70
2022/02/26 03:07:33;;;;;;;1.30;0.80;;;22.40;29.40;;;;;;5112158;28;20873;-70
2022/02/26 03:09:58;;;;;;;1.43;0.80;;;22.40;29.40;;;;;;5110721;28;20544;-70
2022/02/26 03:12:24;;;;;;;1.60;0.80;;;22.40;29.40;;;;;;5112292;28;20491;-70
2022/02/26 03:14:50;;;;;;;1.40;0.90;;;22.40;29.50;;;;;;5110630;28;20400;-70
2022/02/26 03:17:15;;;;;;;1.50;0.70;;;22.40;29.50;;;;;;5110812;28;20391;-70
2022/02/26 03:19:41;;;;;;;2.07;0.83;;;22.40;29.50;;;;;;5111525;28;20411;-70
2022/02/26 03:22:07;;;;;;;1.70;0.70;;;22.40;29.50;;;;;;5112305;28;20399;-71
2022/02/26 03:24:32;;;;;;;1.40;0.73;;;22.40;29.50;;;;;;5110624;28;20866;-70
2022/02/26 03:26:58;;;;;;;1.85;0.80;;;22.30;29.40;;;;;;5110723;28;20384;-70
2022/02/26 03:29:31;;;;;;;1.65;0.80;;;22.40;29.50;;;;;;5111031;28;20474;-70
2022/02/26 03:31:57;;;;;;;1.52;0.80;;;22.40;29.40;;;;;;5110015;28;20397;-70
2022/02/26 03:34:23;;;;;;;1.67;0.75;;;22.40;29.40;;;;;;5111860;28;20395;-70
2022/02/26 03:36:51;;;;;;;1.15;0.75;;;22.40;29.40;;;;;;5111998;28;20384;-71
2022/02/26 03:39:17;;;;;;;2.08;0.75;;;22.40;29.50;;;;;;5111770;28;20395;-70
2022/02/26 03:41:43;;;;;;;1.67;0.80;;;22.40;29.50;;;;;;5111199;28;20398;-70
2022/02/26 03:44:09;;;;;;;1.40;0.80;;;22.30;29.40;;;;;;5112118;28;20484;-70
2022/02/26 03:46:35;;;;;;;1.40;0.80;;;22.40;29.50;;;;;;5111582;28;20408;-70
2022/02/26 03:49:03;;;;;;;1.52;0.90;;;22.30;29.40;;;;;;5116131;28;20790;-71
2022/02/26 03:51:30;;;;;;;1.55;0.82;;;22.30;29.40;;;;;;5115885;28;20384;-70
2022/02/26 03:53:55;;;;;;;1.88;0.75;;;22.30;29.40;;;;;;5114692;28;20379;-70
2022/02/26 03:56:21;;;;;;;2.60;0.70;;;22.30;29.40;;;;;;5115897;28;20441;-70
2022/02/26 03:58:49;;;;;;;1.63;0.80;;;22.30;29.50;;;;;;5116107;28;20387;-70
2022/02/26 04:01:15;;;;;;;1.80;1.02;;;22.30;29.60;;;;;;5114394;28;20939;-70
2022/02/26 04:03:41;;;;;;;1.60;0.80;;;22.30;29.60;;;;;;5115460;28;20411;-70
2022/02/26 04:06:07;;;;;;;1.57;0.80;;;22.30;29.60;;;;;;5114360;28;20402;-70
2022/02/26 04:08:34;;;;;;;1.55;0.90;;;22.30;29.60;;;;;;5114047;28;20387;-70
2022/02/26 04:10:59;;;;;;;2.65;0.90;;;22.30;29.70;;;;;;5115471;28;20396;-70
2022/02/26 04:13:25;;;;;;;1.70;0.93;;;22.30;29.60;;;;;;5115863;28;20519;-71
2022/02/26 04:15:51;;;;;;;1.60;0.80;;;22.20;29.50;;;;;;5115048;28;20874;-71
2022/02/26 04:18:16;;;;;;;1.60;0.80;;;22.20;29.60;;;;;;5115426;28;20559;-71
2022/02/26 04:20:42;;;;;;;2.00;1.10;;;22.30;29.60;;;;;;5115234;28;20528;-70
2022/02/26 04:23:08;;;;;;;1.90;1.10;;;22.30;29.60;;;;;;5115276;28;20403;-70
2022/02/26 04:25:33;;;;;;;2.00;1.10;;;22.30;29.50;;;;;;5115224;28;20399;-70
2022/02/26 04:27:59;;;;;;;2.50;1.20;;;22.20;29.50;;;;;;5115187;28;20403;-70
2022/02/26 04:30:25;;;;;;;2.78;1.10;;;22.30;29.50;;;;;;5115126;28;20427;-70
2022/02/26 04:32:50;;;;;;;2.40;1.00;;;22.20;29.50;;;;;;5115162;28;20384;-70
2022/02/26 04:35:16;;;;;;;2.03;0.90;;;22.20;29.90;;;;;;5116099;28;20388;-70
2022/02/26 04:37:42;;;;;;;1.60;0.93;;;22.20;29.40;;;;;;5114704;28;20388;-70
2022/02/26 04:40:09;;;;;;;2.10;1.23;;;22.20;29.50;;;;;;5114630;28;20768;-71
2022/02/26 04:42:35;;;;;;;1.98;1.05;;;22.20;29.50;;;;;;5115128;28;20408;-71
2022/02/26 04:45:01;;;;;;;1.83;1.10;;;22.20;29.60;;;;;;5114746;28;20410;-70
2022/02/26 04:47:27;;;;;;;1.60;1.00;;;22.20;29.60;;;;;;5114878;28;20820;-70
2022/02/26 04:49:52;;;;;;;1.85;1.13;;;22.20;29.60;;;;;;5115201;28;20400;-70
2022/02/26 04:52:18;;;;;;;1.80;1.10;;;22.20;29.70;;;;;;5113579;28;20441;-70
2022/02/26 04:54:43;;;;;;;2.30;1.10;;;22.20;29.70;;;;;;5113948;28;20754;-70
2022/02/26 04:57:09;;;;;;;2.33;1.20;;;22.20;29.70;;;;;;5113393;28;20388;-70
2022/02/26 04:59:35;;;;;;;2.33;1.20;;;22.20;29.70;;;;;;5111730;28;20404;-70
2022/02/26 05:02:00;;;;;;;1.83;1.00;;;22.20;29.60;;;;;;5114103;28;20392;-70
2022/02/26 05:04:26;;;;;;;1.70;0.97;;;22.20;29.60;;;;;;5114487;28;20369;-71
2022/02/26 05:06:52;;;;;;;2.33;1.10;;;22.10;29.60;;;;;;5114336;28;20873;-70
2022/02/26 05:09:17;;;;;;;3.90;1.00;;;22.10;29.50;;;;;;5114449;28;20380;-70
2022/02/26 05:11:43;;;;;;;1.95;1.00;;;22.20;29.60;;;;;;5113884;28;20392;-71
2022/02/26 05:14:08;;;;;;;1.90;1.00;;;22.10;29.50;;;;;;5112693;28;20465;-71
2022/02/26 05:16:34;;;;;;;1.75;1.10;;;22.10;29.60;;;;;;5114192;28;20384;-70
2022/02/26 05:19:00;;;;;;;2.67;1.20;;;22.10;29.50;;;;;;5114184;28;20468;-71
2022/02/26 05:21:25;;;;;;;2.77;1.27;;;22.10;29.50;;;;;;5114680;28;20412;-71
2022/02/26 05:23:51;;;;;;;2.47;1.20;;;22.20;29.60;;;;;;5113660;28;20831;-71
2022/02/26 05:26:16;;;;;;;2.30;1.23;;;22.10;29.60;;;;;;5114092;28;20476;-70
2022/02/26 05:28:42;;;;;;;2.47;1.20;;;22.10;29.60;;;;;;5114015;28;20380;-70
2022/02/26 05:31:08;;;;;;;1.90;1.17;;;22.10;29.60;;;;;;5114510;28;20776;-70
2022/02/26 05:33:35;;;;;;;1.83;1.13;;;22.10;29.60;;;;;;5113929;28;20406;-71
2022/02/26 05:36:02;;;;;;;2.20;1.08;;;22.10;29.70;;;;;;5112122;28;20410;-70
2022/02/26 05:38:28;;;;;;;2.33;1.20;;;22.10;29.70;;;;;;5112455;28;20396;-71
2022/02/26 05:40:53;;;;;;;2.13;1.07;;;22.10;29.70;;;;;;5112436;28;20427;-70
2022/02/26 05:43:19;;;;;;;2.10;1.20;;;22.10;29.70;;;;;;5113204;28;20530;-71
2022/02/26 05:45:45;;;;;;;2.67;1.30;;;22.10;29.70;;;;;;5111846;28;20401;-70
2022/02/26 05:48:11;;;;;;;2.30;1.20;;;22.10;29.70;;;;;;5112572;28;20467;-70
2022/02/26 05:50:37;;;;;;;1.85;1.10;;;22.10;29.70;;;;;;5112955;28;20487;-70
2022/02/26 05:53:02;;;;;;;2.60;1.30;;;22.10;29.70;;;;;;5113561;28;20862;-70
2022/02/26 05:55:28;;;;;;;2.13;1.40;;;22.10;29.60;;;;;;5113492;28;20746;-70
2022/02/26 05:57:54;;;;;;;2.67;1.20;;;22.10;29.70;;;;;;5111742;28;20381;-71
2022/02/26 06:00:20;;;;;;;2.03;1.33;;;22.10;29.70;;;;;;5112081;28;20786;-70
2022/02/26 06:02:45;;;;;;;2.00;1.30;;;22.10;29.70;;;;;;5111820;28;20529;-70
2022/02/26 06:05:11;;;;;;;2.70;1.23;;;22.10;29.70;;;;;;5113359;28;20412;-70
2022/02/26 06:07:37;;;;;;;2.65;1.42;;;22.10;29.70;;;;;;5113382;28;20381;-70
2022/02/26 06:10:04;;;;;;;3.00;1.50;;;22.00;29.60;;;;;;5110526;28;20785;-70
2022/02/26 06:12:29;;;;;;;2.40;1.25;;;22.00;29.70;;;;;;5111408;28;20385;-71
2022/02/26 06:14:56;;;;;;;2.50;1.30;;;22.00;29.70;;;;;;5111817;28;20916;-70
2022/02/26 06:17:21;;;;;;;2.00;1.27;;;22.00;29.70;;;;;;5113151;28;20411;-70
2022/02/26 06:19:47;;;;;;;1.90;1.20;;;22.00;29.70;;;;;;5112873;28;20889;-70
2022/02/26 06:22:13;;;;;;;2.17;1.20;;;22.00;29.80;;;;;;5111613;28;20463;-70
2022/02/26 06:24:39;;;;;;;2.33;1.30;;;21.90;29.70;;;;;;5113273;28;20376;-70
2022/02/26 06:27:04;;;;;;;2.40;1.50;;;22.00;29.80;;;;;;5112709;28;20419;-70
2022/02/26 06:29:30;;;;;;;1.73;1.20;;;22.00;29.70;;;;;;5110398;28;20950;-70
2022/02/26 06:31:56;;;;;;;2.03;1.13;;;22.00;29.70;;;;;;5112565;28;20384;-70
2022/02/26 06:34:21;;;;;;;2.13;1.27;;;22.00;29.70;;;;;;5112847;28;20381;-70
2022/02/26 06:36:47;;;;;;;2.10;1.30;;;22.00;29.70;;;;;;5112376;28;20449;-70
2022/02/26 06:39:14;;;;;;;2.30;1.50;;;22.00;29.70;;;;;;5112773;28;20434;-70
2022/02/26 06:41:40;;;;;;;2.70;1.60;;;22.00;29.70;;;;;;5111602;28;20871;-70
2022/02/26 06:44:06;;;;;;;2.45;1.45;;;22.00;29.70;;;;;;5112217;28;20861;-70
2022/02/26 06:46:35;;;;;;;2.20;1.20;;;22.00;29.60;;;;;;5112342;28;20461;-70
2022/02/26 06:49:02;;;;;;;2.13;1.35;;;22.00;29.60;;;;;;5112829;28;20795;-70
2022/02/26 06:51:28;;;;;;;2.50;1.40;;;21.90;29.70;;;;;;5112463;28;20380;-70
2022/02/26 06:53:54;;;;;;;2.05;1.35;;;21.90;30.00;;;;;;5110741;28;20409;-70
2022/02/26 06:56:19;;;;;;;2.92;1.90;;;21.90;30.40;;;;;;5112648;28;20500;-69
2022/02/26 06:58:45;;;;;;;4.60;1.80;;;21.90;30.80;;;;;;5112240;28;20384;-70
2022/02/26 07:01:11;;;;;;;4.75;2.10;;;22.00;30.30;;;;;;5112230;28;20412;-70
2022/02/26 07:03:36;;;;;;;3.93;1.97;;;21.90;30.60;;;;;;5112103;28;20384;-69
2022/02/26 07:06:03;;;;;;;3.78;1.95;;;21.90;30.50;;;;;;5110633;28;20522;-68
2022/02/26 07:08:28;;;;;;;6.80;2.08;;;21.70;30.70;;;;;;5112000;28;20464;-68
2022/02/26 07:10:55;;;;;;;3.53;1.83;;;21.60;30.10;;;;;;5112487;28;20412;-67
2022/02/26 07:13:21;;;;;;;3.85;2.00;;;21.50;30.40;;;;;;5112120;28;20373;-67
2022/02/26 07:15:47;;;;;;;2.53;1.60;;;21.40;30.60;;;;;;5110985;28;20402;-68
2022/02/26 07:18:12;;;;;;;3.40;1.60;;;21.40;30.80;;;;;;5111838;28;20820;-68
2022/02/26 07:20:38;;;;;;;4.30;1.77;;;21.30;30.70;;;;;;5111590;28;20415;-68
2022/02/26 07:23:04;;;;;;;3.58;1.67;;;21.20;31.20;;;;;;5110487;28;20381;-67
2022/02/26 07:25:30;;;;;;;3.63;1.60;;;21.20;31.10;;;;;;5111850;28;20384;-68
2022/02/26 07:27:56;;;;;;;2.83;1.42;;;21.30;31.40;;;;;;5111568;28;20376;-68
2022/02/26 07:30:22;;;;;;;3.50;1.50;;;21.30;31.40;;;;;;5111870;28;20399;-67
2022/02/26 07:32:47;;;;;;;2.25;1.30;;;21.40;31.30;;;;;;5110764;28;20750;-68
2022/02/26 07:35:13;;;;;;;2.07;1.30;;;21.40;31.30;;;;;;5111216;28;20399;-68
2022/02/26 07:37:39;;;;;;;2.50;1.20;;;21.40;31.10;;;;;;5111833;28;20372;-68
2022/02/26 07:40:05;;;;;;;4.10;1.50;;;21.40;31.20;;;;;;5111338;28;20850;-67
2022/02/26 07:42:31;;;;;;;4.13;1.40;;;21.40;31.10;;;;;;5111527;28;20411;-68
2022/02/26 07:44:57;;;;;;;3.22;1.30;;;21.50;31.20;;;;;;5111566;28;20395;-67
2022/02/26 07:47:22;;;;;;;2.13;1.23;;;21.50;30.90;;;;;;5111706;28;20400;-68
2022/02/26 07:49:49;;;;;;;2.38;1.33;;;21.50;31.00;;;;;;5109937;28;20384;-67
2022/02/26 07:52:15;;;;;;;2.30;1.38;;;21.50;30.90;;;;;;5110285;28;20396;-68
2022/02/26 07:54:41;;;;;;;2.20;1.30;;;21.50;30.90;;;;;;5111611;28;20493;-69
2022/02/26 07:57:07;;;;;;;3.78;1.23;;;21.50;30.80;;;;;;5111465;28;21027;-69
2022/02/26 07:59:33;;;;;;;4.38;1.70;;;21.50;31.00;;;;;;5111528;28;20400;-70
2022/02/26 08:01:59;;;;;;;2.72;1.50;;;21.50;31.00;;;;;;5110996;28;20397;-69
2022/02/26 08:04:26;;;;;;;2.58;1.15;;;21.50;30.90;;;;;;5111419;28;20711;-70
2022/02/26 08:06:52;;;;;;;2.63;1.30;;;21.50;30.80;;;;;;5111467;28;20731;-69
2022/02/26 08:09:18;;;;;;;3.05;1.40;;;21.50;30.90;;;;;;5111570;28;20459;-69
2022/02/26 08:11:43;;;;;;;7.63;1.50;;;21.50;30.90;;;;;;5111354;28;20475;-70
2022/02/26 08:14:09;;;;;;;2.58;1.10;;;21.50;31.00;;;;;;5110126;28;20392;-69
2022/02/26 08:16:34;;;;;;;3.17;1.00;;;21.40;30.90;;;;;;5110465;28;20768;-69
2022/02/26 08:19:00;;;;;;;2.47;1.05;;;21.50;30.80;;;;;;5110127;28;20380;-69
2022/02/26 08:21:26;;;;;;;2.90;1.13;;;21.40;30.80;;;;;;5110081;28;20777;-70
2022/02/26 08:23:52;;;;;;;1.80;1.10;;;21.50;30.80;;;;;;5110059;28;20884;-70
2022/02/26 08:26:19;;;;;;;2.10;1.02;;;21.40;30.80;;;;;;5110335;28;20396;-70
2022/02/26 08:28:45;;;;;;;2.53;1.17;;;21.40;31.00;;;;;;5102963;28;20399;-70
2022/02/26 08:31:11;;;;;;;2.90;1.23;;;21.40;31.20;;;;;;5082219;28;20399;-71
2022/02/26 08:33:37;;;;;;;2.90;1.17;;;21.40;31.20;;;;;;5088841;28;20394;-67
2022/02/26 08:36:03;;;;;;;2.15;1.08;;;21.50;31.60;;;;;;5085202;28;20489;-71
2022/02/26 08:38:29;;;;;;;2.15;1.08;;;21.50;31.30;;;;;;5093810;28;20385;-70
2022/02/26 08:40:55;;;;;;;2.75;1.10;;;21.50;31.10;;;;;;5094695;28;20909;-71
2022/02/26 08:43:21;;;;;;;3.23;1.30;;;21.60;31.50;;;;;;5114018;28;20512;-71
2022/02/26 08:45:47;;;;;;;1.77;1.13;;;21.60;31.10;;;;;;5113377;28;20416;-70
2022/02/26 08:48:12;;;;;;;3.00;1.10;;;21.60;30.90;;;;;;5114525;28;20426;-70
2022/02/26 08:50:38;;;;;;;6.90;1.35;;;21.60;31.00;;;;;;5114475;28;20399;-71
2022/02/26 08:53:04;;;;;;;2.73;1.27;;;21.60;31.30;;;;;;5114481;28;20745;-71
2022/02/26 08:55:30;;;;;;;2.92;1.20;;;21.60;31.20;;;;;;5113376;28;20389;-71
2022/02/26 08:57:56;;;;;;;2.77;1.03;;;21.50;30.90;;;;;;5114100;28;20385;-71
2022/02/26 09:00:21;;;;;;;2.60;1.20;;;21.50;31.00;;;;;;5114582;28;20495;-71
2022/02/26 09:02:47;;;;;;;3.03;1.02;;;21.50;31.00;;;;;;5114585;28;20383;-71
2022/02/26 09:05:13;;;;;;;3.33;1.67;;;21.50;31.00;;;;;;5114414;28;20423;-71
2022/02/26 09:07:39;;;;;;;2.23;1.00;;;21.50;31.00;;;;;;5112903;28;20453;-71
2022/02/26 09:10:06;;;;;;;3.33;0.90;;;21.50;31.00;;;;;;5113935;28;20389;-71
2022/02/26 09:12:32;;;;;;;1.98;1.00;;;21.50;30.90;;;;;;5114140;28;20384;-71
2022/02/26 09:14:58;;;;;;;3.13;1.10;;;21.50;30.90;;;;;;5114305;28;20386;-71
2022/02/26 09:17:24;;;;;;;2.30;1.20;;;21.50;30.90;;;;;;5114170;28;20380;-71
2022/02/26 09:19:51;;;;;;;2.97;0.90;;;21.50;30.80;;;;;;5111948;28;20407;-71
2022/02/26 09:22:18;;;;;;;4.05;1.23;;;21.50;30.80;;;;;;5113243;28;20543;-71
2022/02/26 09:24:43;;;;;;;2.90;1.00;;;21.50;30.80;;;;;;5114046;28;20857;-71
2022/02/26 09:27:09;;;;;;;3.83;1.23;;;21.50;31.40;;;;;;5114022;28;20403;-71
2022/02/26 09:29:35;;;;;;;2.53;1.30;;;21.50;30.70;;;;;;5113851;28;20388;-71
2022/02/26 09:32:00;;;;;;;2.90;1.40;;;21.50;30.70;;;;;;5112193;28;20472;-71
2022/02/26 09:34:26;;;;;;;2.33;1.23;;;21.50;30.80;;;;;;5113293;28;20380;-71
2022/02/26 09:36:53;;;;;;;4.00;1.60;;;21.50;30.70;;;;;;5114200;28;20934;-71
2022/02/26 09:39:19;;;;;;;3.78;1.42;;;21.50;30.70;;;;;;5113514;28;20814;-71
2022/02/26 09:41:46;;;;;;;3.45;1.35;;;21.50;30.90;;;;;;5113908;28;20479;-71
2022/02/26 09:44:13;;;;;;;4.43;1.67;;;21.50;30.80;;;;;;5113215;28;20393;-71
2022/02/26 09:46:39;;;;;;;2.20;1.40;;;21.50;30.60;;;;;;5113457;28;20408;-71
2022/02/26 09:49:05;;;;;;;3.03;1.50;;;21.50;30.60;;;;;;5113573;27;20742;-71
2022/02/26 09:51:33;;;;;;;3.10;1.60;;;21.50;30.60;;;;;;5113349;28;20399;-71
2022/02/26 09:53:59;;;;;;;2.20;1.52;;;21.50;30.50;;;;;;5112950;28;20377;-71
2022/02/26 09:56:25;;;;;;;2.67;1.75;;;21.50;30.50;;;;;;5113364;28;20483;-71
2022/02/26 09:58:52;;;;;;;3.10;1.52;;;21.50;30.40;;;;;;5113846;28;20385;-70
2022/02/26 10:01:18;;;;;;;2.67;1.45;;;21.50;30.60;;;;;;5112941;28;20420;-71
2022/02/26 10:03:44;;;;;;;4.30;1.77;;;21.60;30.50;;;;;;5113276;28;20376;-70
2022/02/26 10:06:18;;;;;;;4.28;2.72;;;21.60;30.90;;;;;;5112271;28;20389;-71
2022/02/26 10:08:50;;;;;;;5.90;2.90;;;21.70;31.10;;;;;;5128779;27;20385;-71
2022/02/26 10:11:31;;;;;;;8.37;2.80;;;21.70;32.60;;;;;;5109858;28;20396;-71
2022/02/26 10:14:08;;;;;;;7.90;2.30;;;21.80;32.40;;;;;;5111660;28;20403;-71
2022/02/26 10:16:57;;;;;;;7.97;2.70;;;21.90;32.60;;;;;;5109409;28;20469;-71
2022/02/26 10:19:32;;;;;;;6.85;2.20;;;21.90;32.70;;;;;;5110553;28;20391;-71
2022/02/26 10:22:04;;;;;;;5.40;2.40;;;22.00;32.90;;;;;;5109388;28;20445;-70
2022/02/26 10:24:30;;;;;;;7.43;2.60;;;22.00;32.90;;;;;;5110345;28;21171;-70
2022/02/26 10:27:05;;;;;;;7.35;2.63;;;22.10;32.80;;;;;;5111912;28;20437;-71
2022/02/26 10:29:36;;;;;;;8.13;2.35;;;22.00;32.60;;;;;;5111521;28;20385;-70
2022/02/26 10:32:04;;;;;;;6.97;2.10;;;22.10;32.00;;;;;;5112416;28;20411;-70
2022/02/26 10:34:38;;;;;;;9.27;2.25;;;22.00;32.00;;;;;;5111477;28;20395;-70
2022/02/26 10:37:18;;;;;;;9.70;2.50;;;21.90;32.40;;;;;;5112728;28;20396;-71
2022/02/26 10:39:58;;;;;;;6.28;2.70;;;21.90;31.70;;;;;;5108638;28;20432;-70
2022/02/26 10:42:31;;;;;;;8.43;3.28;;;21.80;32.60;;;;;;5112687;28;20400;-71
2022/02/26 10:45:12;;;;;;;10.45;4.80;;;21.90;35.00;;;;;;5111053;28;20408;-70
2022/02/26 10:47:43;;;;;;;7.32;2.70;;;22.00;35.70;;;;;;5112542;28;20376;-70
2022/02/26 10:50:23;;;;;;;7.90;2.80;;;22.10;35.30;;;;;;5112020;28;20384;-71
2022/02/26 10:53:02;;;;;;;5.82;2.55;;;22.10;35.50;;;;;;5112248;28;20452;-69
2022/02/26 10:55:52;;;;;;;9.32;2.60;;;22.20;37.10;;;;;;5111411;28;20469;-67
2022/02/26 10:58:25;;;;;;;7.53;2.80;;;22.20;38.20;;;;;;5110588;28;20392;-67
2022/02/26 11:00:58;;;;;;;8.55;2.38;;;22.30;35.40;;;;;;5111557;28;20412;-70
2022/02/26 11:03:24;;;;;;;8.32;2.40;;;22.40;35.60;;;;;;5111685;28;20372;-70
2022/02/26 11:05:53;;;;;;;6.43;2.33;;;22.40;35.90;;;;;;5111746;28;20881;-70
2022/02/26 11:08:19;;;;;;;7.75;2.20;;;22.40;36.10;;;;;;5110426;28;20383;-70
2022/02/26 11:10:46;;;;;;;7.80;2.60;;;22.40;35.90;;;;;;5112215;28;20471;-70
2022/02/26 11:13:13;;;;;;;8.35;2.15;;;22.40;35.80;;;;;;5112004;28;20434;-70
2022/02/26 11:15:39;;;;;;;7.43;2.22;;;22.40;35.20;;;;;;5110680;28;20415;-70
2022/02/26 11:18:05;;;;;;;6.70;2.40;;;22.40;35.30;;;;;;5111648;28;20430;-71
2022/02/26 11:20:34;;;;;;;5.45;2.30;;;22.40;35.30;;;;;;5111647;28;20445;-69
2022/02/26 11:23:00;;;;;;;9.33;2.40;;;22.30;34.30;;;;;;5110014;28;20393;-70
2022/02/26 11:25:27;;;;;;;7.50;2.20;;;22.30;35.10;;;;;;5111788;28;20446;-70
2022/02/26 11:27:53;;;;;;;7.38;2.03;;;22.30;35.10;;;;;;5111649;28;20380;-70
2022/02/26 11:30:24;;;;;;;6.82;2.65;;;22.40;35.30;;;;;;5111381;28;20400;-70
2022/02/26 11:32:51;;;;;;;5.65;2.53;;;22.40;35.10;;;;;;5111602;28;20381;-70
2022/02/26 11:35:19;;;;;;;7.78;2.40;;;22.40;34.70;;;;;;5111114;28;20399;-70
2022/02/26 11:37:51;;;;;;;7.43;2.40;;;22.40;34.50;;;;;;5110199;28;20387;-70
2022/02/26 11:40:18;;;;;;;6.90;2.47;;;22.40;34.50;;;;;;5110772;28;20405;-70
2022/02/26 11:42:44;;;;;;;5.78;2.00;;;22.40;34.40;;;;;;5111209;28;20888;-71
2022/02/26 11:45:12;;;;;;;5.40;2.33;;;22.40;34.30;;;;;;5110894;28;20810;-70
2022/02/26 11:47:53;;;;;;;4.00;1.92;;;22.50;34.30;;;;;;5109631;28;20428;-70
2022/02/26 11:50:30;;;;;;;5.90;2.00;;;22.40;33.70;;;;;;5109349;28;20471;-70
2022/02/26 11:53:15;;;;;;;5.50;2.10;;;22.30;33.70;;;;;;5109850;28;20395;-70
2022/02/26 11:55:44;;;;;;;5.30;2.30;;;22.30;33.70;;;;;;5108047;28;20391;-70
2022/02/26 11:58:30;;;;;;;4.20;2.00;;;22.40;33.60;;;;;;5107066;28;20925;-70
2022/02/26 12:01:06;;;;;;;4.00;2.00;;;22.30;33.30;;;;;;5108418;28;20412;-70
2022/02/26 12:03:41;;;;;;;3.88;2.20;;;22.40;32.70;;;;;;5106575;28;20901;-70
2022/02/26 12:06:12;;;;;;;4.90;2.00;;;22.30;32.80;;;;;;5110391;28;20396;-70
2022/02/26 12:08:49;;;;;;;3.38;1.83;;;22.30;32.50;;;;;;5113633;28;20420;-70
2022/02/26 12:11:20;;;;;;;4.20;1.90;;;22.30;32.90;;;;;;5115417;27;20389;-70
2022/02/26 12:13:54;;;;;;;5.22;2.13;;;22.30;32.90;;;;;;5115268;28;20905;-70
2022/02/26 12:16:25;;;;;;;4.50;2.28;;;22.20;32.70;;;;;;5114926;28;20384;-70
2022/02/26 12:18:57;;;;;;;3.92;2.00;;;22.30;32.70;;;;;;5114060;28;20398;-70
2022/02/26 12:21:26;;;;;;;4.25;2.00;;;22.20;32.50;;;;;;5114477;28;20404;-70
2022/02/26 12:24:15;;;;;;;3.80;2.10;;;22.20;32.30;;;;;;5114295;28;20384;-70
2022/02/26 12:26:45;;;;;;;4.70;2.20;;;22.30;32.60;;;;;;5111580;28;20381;-71
2022/02/26 12:29:25;;;;;;;4.00;2.50;;;22.30;32.40;;;;;;5114502;28;20435;-70
2022/02/26 12:32:18;;;;;;;3.80;2.30;;;22.30;32.80;;;;;;5113825;28;20391;-70
2022/02/26 12:35:03;;;;;;;4.55;2.40;;;22.30;32.80;;;;;;5105287;28;20384;-70
2022/02/26 12:37:32;;;;;;;5.40;2.25;;;22.20;32.80;;;;;;5113697;28;20403;-71
2022/02/26 12:40:19;;;;;;;4.22;2.10;;;22.20;32.50;;;;;;5113515;28;20403;-68
2022/02/26 12:42:47;;;;;;;4.55;2.17;;;22.20;32.30;;;;;;5114978;28;20418;-68
2022/02/26 12:45:16;;;;;;;5.05;2.50;;;22.20;32.50;;;;;;5114370;28;20400;-70
2022/02/26 12:47:42;;;;;;;4.32;2.30;;;21.30;31.60;;;;;;5114898;28;20854;-70
2022/02/26 12:50:11;;;;;;;5.15;2.40;;;22.20;32.10;;;;;;5113150;28;20465;-71